createdAt,value
2019-02-20T20:48:34.516Z,21.18
2019-02-20T20:51:19.928Z,21.10
2019-02-20T20:54:22.175Z,21.03
2019-02-20T20:57:24.382Z,20.97
2019-02-20T21:00:17.401Z,21.00
2019-02-20T21:02:55.539Z,20.95
2019-02-20T21:05:57.548Z,20.97
2019-02-20T21:08:42.829Z,20.91
2019-02-20T21:11:36.136Z,20.85
2019-02-20T21:14:36.512Z,20.83
2019-02-20T21:17:21.809Z,20.83
2019-02-20T21:20:05.227Z,20.87
2019-02-20T21:22:59.889Z,20.53
2019-02-20T21:25:42.111Z,20.94
2019-02-20T21:28:41.485Z,20.92
2019-02-20T21:31:18.012Z,20.86
2019-02-20T21:34:08.452Z,20.75
2019-02-20T21:36:44.535Z,20.67
2019-02-20T21:39:23.730Z,20.66
2019-02-20T21:42:12.239Z,20.66
2019-02-20T21:44:54.280Z,20.63
2019-02-20T21:48:02.436Z,20.59
2019-02-20T21:50:38.924Z,20.53
2019-02-20T21:53:32.145Z,20.49
2019-02-20T21:56:14.396Z,20.43
2019-02-20T21:59:05.678Z,20.37
2019-02-20T22:02:02.175Z,20.31
2019-02-20T22:04:50.166Z,20.25
2019-02-20T22:07:52.509Z,20.19
2019-02-20T22:10:31.681Z,20.17
2019-02-20T22:13:25.507Z,20.11
2019-02-20T22:16:21.294Z,20.05
2019-02-20T22:19:03.589Z,20.01
2019-02-20T22:22:02.897Z,19.99
2019-02-20T22:24:39.765Z,19.96
2019-02-20T22:27:35.857Z,19.92
2019-02-20T22:30:30.127Z,19.87
2019-02-20T22:33:15.581Z,19.83
2019-02-20T22:36:11.844Z,19.80
2019-02-20T22:38:48.469Z,19.76
2019-02-20T22:41:39.767Z,19.77
2019-02-20T22:44:18.983Z,19.78
2019-02-20T22:47:07.130Z,19.76
2019-02-20T22:49:52.135Z,19.75
2019-02-20T22:52:31.550Z,19.74
2019-02-20T22:55:33.118Z,19.70
2019-02-20T22:58:12.508Z,19.67
2019-02-20T23:01:20.994Z,19.61
2019-02-20T23:04:17.587Z,19.57
2019-02-20T23:06:56.789Z,19.53
2019-02-20T23:09:54.205Z,19.50
2019-02-20T23:12:48.828Z,19.53
2019-02-20T23:15:22.063Z,19.50
2019-02-20T23:17:55.313Z,19.45
2019-02-20T23:20:28.816Z,19.43
2019-02-20T23:23:02.319Z,19.43
2019-02-20T23:25:35.554Z,19.39
2019-02-20T23:28:08.826Z,19.42
2019-02-20T23:30:42.061Z,19.41
2019-02-20T23:33:15.297Z,19.37
2019-02-20T23:35:48.531Z,19.34
2019-02-20T23:38:22.739Z,19.33
2019-02-20T23:40:57.506Z,19.31
2019-02-20T23:43:30.790Z,19.27
2019-02-20T23:46:04.021Z,19.25
2019-02-20T23:48:37.265Z,19.25
2019-02-20T23:51:10.498Z,19.22
2019-02-20T23:53:43.749Z,19.21
2019-02-20T23:56:16.978Z,19.20
2019-02-20T23:58:50.236Z,19.19
